• Join FlightAware (Why Join?)
  • Login
  • US Flag 
03:33AM EDT


 

Airport Tracker/Info


-or-


 

Live Flight TrackerFlight Track Log ✈ AWE515 ✈ 13-May-2013 ✈ KPHX - KDSM

Flight Track Log - Related Links

Times and Time Zones

All times are in EDT time to prevent confusion due to time zone crossing. See the AWE515 flight status page for this flight to view local times or setup timezone preferences in your user account.

Time Position Orientation Groundspeed Altitude Reporting Facility
EDT Latitude Longitude Course Direction KTS MPH feet Rate Location/Type
12:40PM 33.4333 -111.9833 20° North 146 168 1,900  Level Phoenix TRACON
12:41PM 33.4333 -111.9333 90° East 174 200 3,300 1,380 Climbing Phoenix TRACON
12:42PM 33.4389 -111.8969 80° East 184 212 4,300 2,220 Climbing Albuquerque Center
12:43PM 33.7448 -111.8628 15° North  Level FlightAware Approximate
12:43PM 33.4664 -111.8258 65° Northeast 227 261 6,900  Level Albuquerque Center
12:44PM 33.8501 -111.8208 20° North  Level FlightAware Approximate
12:44PM 33.5369 -111.7822 27° Northeast 270 311 10,200  Level Albuquerque Center
12:45PM 33.9545 -111.7752 20° North  Level FlightAware Approximate
12:45PM 33.6100 -111.8319 330° Northwest 297 342 11,400  Level Albuquerque Center
12:46PM 33.7089 -111.8156 North 354 407 13,300 1,980 Climbing Albuquerque Center
12:47PM 33.8114 -111.7900 12° North 371 427 15,500 2,220 Climbing Albuquerque Center
12:48PM 33.9139 -111.7633 12° North 379 436 17,900 2,220 Climbing Albuquerque Center
12:49PM 34.0367 -111.7328 12° North 388 447 20,200 1,980 Climbing Albuquerque Center
12:50PM 34.1211 -111.6506 39° Northeast 401 461 22,100 1,740 Climbing Albuquerque Center
12:51PM 34.2031 -111.5583 43° Northeast 403 464 23,900 1,620 Climbing Albuquerque Center
12:52PM 34.2850 -111.4653 43° Northeast 404 465 25,500 1,380 Climbing Albuquerque Center
12:53PM 34.3689 -111.3697 43° Northeast 411 473 26,800 1,380 Climbing Albuquerque Center
12:54PM 34.4717 -111.2511 44° Northeast 422 486 28,400 1,500 Climbing Albuquerque Center
12:55PM 34.5572 -111.1519 44° Northeast 424 488 30,000 1,200 Climbing Albuquerque Center
12:56PM 34.6414 -111.0547 44° Northeast 420 483 31,000 480 Climbing Albuquerque Center
12:57PM 34.7253 -110.9575 44° Northeast 419 482 31,000  Level Albuquerque Center
12:58PM 34.8094 -110.8592 44° Northeast 419 482 31,000  Level Albuquerque Center
12:59PM 34.9078 -110.7461 43° Northeast 422 486 31,000  Level Albuquerque Center
01:00PM 34.9897 -110.6528 43° Northeast 422 486 31,000  Level Albuquerque Center
01:01PM 35.0842 -110.5400 44° Northeast 424 488 31,000  Level Albuquerque Center
01:02PM 35.1653 -110.4444 44° Northeast 422 486 31,000  Level Albuquerque Center
01:03PM 35.2600 -110.3331 44° Northeast 422 486 31,000  Level Albuquerque Center
01:05PM 35.3406 -110.2381 44° Northeast 421 484 31,000  Level Albuquerque Center
01:06PM 35.4347 -110.1272 44° Northeast 420 483 31,000  Level Albuquerque Center
01:07PM 35.5142 -110.0300 45° Northeast 420 483 31,000  Level Albuquerque Center
01:08PM 35.6083 -109.9183 44° Northeast 421 484 31,000  Level Albuquerque Center
01:09PM 35.6889 -109.8211 44° Northeast 422 486 31,000  Level Albuquerque Center
01:10PM 35.7681 -109.6939 52° Northeast 420 483 31,000  Level Albuquerque Center
01:11PM 35.8364 -109.5836 53° Northeast 421 484 31,000  Level Albuquerque Center
01:12PM 35.9056 -109.4733 52° Northeast 422 486 31,000  Level Albuquerque Center
01:13PM 35.9861 -109.3453 52° Northeast 423 487 31,000  Level Albuquerque Center
01:14PM 36.0550 -109.2336 53° Northeast 423 487 31,000  Level Albuquerque Center
01:15PM 36.1322 -109.1097 52° Northeast 427 491 31,000  Level Albuquerque Center
01:16PM 36.2067 -108.9908 52° Northeast 424 488 31,000  Level Albuquerque Center
01:17PM 36.2883 -108.8583 53° Northeast 425 489 31,000  Level Albuquerque Center
01:18PM 36.3689 -108.7261 53° Northeast 426 490 31,000  Level Denver Center
01:19PM 36.4381 -108.6139 53° Northeast 426 490 31,000  Level Denver Center
01:20PM 36.5161 -108.4822 54° Northeast 423 487 31,000  Level Denver Center
01:21PM 36.5844 -108.3700 53° Northeast 425 489 31,000  Level Denver Center
01:22PM 36.6639 -108.2392 53° Northeast 424 488 31,000  Level Denver Center
01:23PM 36.7306 -108.1247 54° Northeast 425 489 31,000  Level Denver Center
01:24PM 36.7764 -107.9942 66° East 426 490 31,000  Level Denver Center
01:25PM 36.8192 -107.8375 71° East 428 493 31,000  Level Denver Center
01:26PM 36.8564 -107.7025 71° East 429 494 31,000  Level Denver Center
01:27PM 36.8994 -107.5458 71° East 428 493 31,000  Level Denver Center
01:28PM 36.9350 -107.4103 72° East 428 493 31,000  Level Denver Center
01:29PM 36.9775 -107.2514 71° East 430 495 31,000  Level Denver Center
01:30PM 37.0131 -107.1150 72° East 431 496 31,000  Level Denver Center
01:32PM 37.0547 -106.9567 72° East 431 496 31,000  Level Denver Center
01:33PM 37.0917 -106.8219 71° East 429 494 31,000  Level Denver Center
01:34PM 37.1336 -106.6636 72° East 427 491 31,000  Level Denver Center
01:35PM 37.1700 -106.5267 72° East 430 495 31,000  Level Denver Center
01:36PM 37.2100 -106.3667 73° East 431 496 31,000  Level Denver Center
01:37PM 37.2461 -106.2314 71° East 428 493 31,000  Level Denver Center
01:38PM 37.2850 -106.0711 73° East 428 493 31,000  Level Denver Center
01:39PM 37.3192 -105.9317 73° East 432 497 31,000  Level Denver Center
01:40PM 37.3647 -105.7992 67° East 433 498 31,000  Level Denver Center
01:41PM 37.4508 -105.6689 50° Northeast 432 497 31,000  Level Denver Center
01:42PM 37.5264 -105.5600 49° Northeast 430 495 31,000  Level Denver Center
01:43PM 37.6169 -105.4289 49° Northeast 436 502 31,000  Level Denver Center
01:44PM 37.6944 -105.3192 48° Northeast 436 502 31,000  Level Denver Center
01:45PM 37.7706 -105.1792 55° Northeast 436 502 31,000  Level Denver Center
01:46PM 37.8197 -105.0467 65° Northeast 436 502 31,000  Level Denver Center
01:47PM 37.8806 -104.8919 63° Northeast 438 504 31,000  Level Denver Center
01:48PM 37.9314 -104.7592 64° Northeast 437 503 31,000  Level Denver Center
01:49PM 37.9814 -104.6267 64° Northeast 435 501 31,000  Level Denver Center
01:50PM 38.0403 -104.4706 64° Northeast 437 503 31,000  Level Denver Center
01:51PM 38.0911 -104.3367 64° Northeast 438 504 31,000  Level Denver Center
01:52PM 38.1506 -104.1806 64° Northeast 437 503 31,000  Level Denver Center
01:53PM 38.1994 -104.0453 65° Northeast 437 503 31,000  Level Denver Center
01:54PM 38.2569 -103.8897 65° Northeast 434 499 31,000  Level Denver Center
01:55PM 38.3075 -103.7564 64° Northeast 434 499 31,000  Level Denver Center
01:56PM 38.3556 -103.6217 66° East 436 502 31,000  Level Denver Center
01:57PM 38.4139 -103.4658 64° Northeast 437 503 31,000  Level Denver Center
01:58PM 38.4650 -103.3244 65° Northeast 432 497 31,000  Level Denver Center
01:59PM 38.5133 -103.1908 65° Northeast 432 497 31,000  Level Denver Center
02:00PM 38.5658 -103.0425 66° East 432 497 31,000  Level Denver Center
02:02PM 38.6225 -102.8881 65° Northeast 430 495 31,000  Level Denver Center
02:03PM 38.6722 -102.7464 66° East 428 493 31,000  Level Denver Center
02:04PM 38.7203 -102.6125 65° Northeast 432 497 31,000  Level Denver Center
02:05PM 38.7758 -102.4567 65° Northeast 432 497 31,000  Level Denver Center
02:06PM 38.8233 -102.3208 66° East 435 501 31,000  Level Denver Center
02:07PM 38.8783 -102.1633 66° East 434 499 31,000  Level Denver Center
02:08PM 38.9264 -102.0286 65° Northeast 433 498 31,000  Level Denver Center
02:09PM 38.9803 -101.8711 66° East 431 496 31,000  Level Denver Center
02:10PM 39.0275 -101.7342 66° East 435 501 31,000  Level Denver Center
02:11PM 39.0758 -101.5950 66° East 433 498 31,000  Level Denver Center
02:12PM 39.1300 -101.4372 66° East 433 498 31,000  Level Denver Center
02:13PM 39.1756 -101.3006 67° East 434 499 31,000  Level Denver Center
02:14PM 39.2297 -101.1428 66° East 432 497 31,000  Level Denver Center
02:15PM 39.2747 -101.0067 67° East 432 497 31,000  Level Denver Center
02:16PM 39.3281 -100.8500 66° East 428 493 31,000  Level Denver Center
02:17PM 39.3739 -100.7125 67° East 433 498 31,000  Level Denver Center
02:18PM 39.4264 -100.5508 67° East 437 503 31,000  Level Denver Center
02:19PM 39.4717 -100.4142 67° East 434 499 31,000  Level Denver Center
02:20PM 39.5172 -100.2753 67° East 437 503 31,000  Level Denver Center
02:21PM 39.5694 -100.1142 67° East 436 502 31,000  Level Denver Center
02:22PM 39.6147 -99.9758 67° East 436 502 31,000  Level Denver Center
02:23PM 39.6622 -99.8289 67° East 434 499 31,000  Level Denver Center
02:24PM 39.7092 -99.6836 67° East 435 501 31,000  Level Denver Center
02:25PM 39.7650 -99.5094 67° East 436 502 31,000  Level Denver Center
02:26PM 39.8103 -99.3636 68° East 436 502 31,000  Level Denver Center
02:27PM 39.8569 -99.2181 67° East 436 502 31,000  Level Denver Center
02:28PM 39.9022 -99.0717 68° East 436 502 31,000  Level Denver Center
02:29PM 39.9481 -98.9264 68° East 435 501 31,000  Level Denver Center
02:30PM 39.9847 -98.8108 67° East 436 502 31,000  Level Minneapolis Center
02:31PM 40.0297 -98.6650 68° East 435 501 31,000  Level Minneapolis Center
02:32PM 40.0744 -98.5175 68° East 437 503 31,000  Level Minneapolis Center
02:33PM 40.1192 -98.3692 68° East 439 505 31,000  Level Minneapolis Center
02:34PM 40.1647 -98.2217 68° East 440 506 31,000  Level Minneapolis Center
02:35PM 40.2186 -98.0444 68° East 439 505 31,000  Level Minneapolis Center
02:36PM 40.2622 -97.8958 69° East 439 505 31,000  Level Minneapolis Center
02:37PM 40.3072 -97.7483 68° East 438 504 31,000  Level Minneapolis Center
02:38PM 40.3503 -97.6000 69° East 439 505 31,000  Level Minneapolis Center
02:39PM 40.3958 -97.4514 68° East 440 506 31,000  Level Minneapolis Center
02:40PM 40.4417 -97.2911 69° East 440 506 31,000  Level Minneapolis Center
02:41PM 40.4850 -97.1417 69° East 440 506 31,000  Level Minneapolis Center
02:43PM 40.5286 -96.9919 69° East 440 506 31,000  Level Minneapolis Center
02:44PM 40.5800 -96.8114 69° East 440 506 31,000  Level Minneapolis Center
02:45PM 40.6247 -96.6622 68° East 440 506 31,000  Level Minneapolis Center
02:46PM 40.6675 -96.5097 70° East 444 511 31,000  Level Minneapolis Center
02:47PM 40.7106 -96.3594 69° East 441 507 31,000  Level Minneapolis Center
02:48PM 40.7528 -96.2092 70° East 440 506 31,000  Level Minneapolis Center
02:49PM 40.8042 -96.0286 69° East 441 507 31,000  Level Minneapolis Center
02:50PM 40.8453 -95.8783 70° East 439 505 31,000  Level Minneapolis Center
02:51PM 40.8864 -95.7278 70° East 439 505 31,000  Level Minneapolis Center
02:52PM 40.9294 -95.5769 69° East 440 506 31,000 -300 Level Minneapolis Center
02:53PM 40.9711 -95.4247 70° East 442 509 30,500 -780 Descending Minneapolis Center
02:54PM 41.0119 -95.2717 70° East 443 510 29,500 -1,080 Descending Minneapolis Center
02:55PM 41.0619 -95.0872 70° East 444 511 28,300 -1,800 Descending Minneapolis Center
02:56PM 41.1044 -94.9317 70° East 447 514 25,900 -2,040 Descending Minneapolis Center
02:57PM 41.1467 -94.7803 70° East 444 511 23,700 -2,400 Descending Minneapolis Center
02:58PM 41.1994 -94.5831 70° East 411 473 20,500 -3,120 Descending Minneapolis Center
02:59PM 41.2261 -94.4842 70° East 411 473 18,400 -2,820 Descending Minneapolis Center
02:59PM 41.2308 -94.4469 80° East 413 475 17,600 -2,760 Descending Minneapolis Center
03:00PM 41.2633 -94.3375 68° East 413 475 15,600 -2,940 Descending Minneapolis Center
03:00PM 41.2747 -94.2956 70° East 407 468 14,600 -3,000 Descending Minneapolis Center
03:01PM 41.3311 -94.2264 43° Northeast 394 453 12,600 -3,000 Descending Minneapolis Center
03:01PM 41.3531 -94.1944 48° Northeast 392 451 11,500 -2,220 Descending Minneapolis Center
03:02PM 41.4036 -94.1233 47° Northeast 380 437 10,400 -1,380 Descending Minneapolis Center
03:02PM 41.4206 -94.0978 49° Northeast 354 407 10,100 -1,020 Descending Minneapolis Center
03:03PM 41.4600 -94.0408 47° Northeast 307 353 9,400 -1,980 Descending Minneapolis Center
03:03PM 41.4789 -94.0117 49° Northeast 291 335 8,100 -2,100 Descending Minneapolis Center
03:04PM 41.5106 -93.9669 47° Northeast 288 331 7,500 -1,260 Descending Minneapolis Center
03:04PM 41.5317 -93.9367 47° Northeast 279 321 6,800 -1,500 Descending Minneapolis Center
03:05PM 41.5617 -93.8983 44° Northeast 267 307 6,000 -1,920 Descending Minneapolis Center
03:05PM 41.5861 -93.8700 41° Northeast 251 289 4,900 -1,500 Descending Minneapolis Center
03:06PM 41.6128 -93.8381 42° Northeast 247 284 4,500 -1,200 Descending Minneapolis Center
03:06PM 41.6356 -93.8153 37° Northeast 230 265 3,700 -1,380 Descending Minneapolis Center
03:07PM 41.6475 -93.7819 64° Northeast 207 238 3,100 -1,440 Descending Minneapolis Center